Terminal Aerodrome Forecast
Issued by NWS

Home | Current Version | Previous Version | Text Only | Print | Product List | Glossary On
Versions: 1 2 3 4 5 6 7 8 9 10 11 12 13
000
FTUS45 KABQ 171100
TAFFMN
TAF
KFMN 171128Z 1712/1812 VRB06KT P6SM FEW100
     FM172000 28008KT P6SM FEW250
     FM180200 VRB06KT P6SM SCT200=

USA.gov is the U.S. government's official web portal to all federal, state and local government web resources and services.